Time;durP1;ratioP1;P1;durP2;ratioP2;P2;SDS_P1;SDS_P2;PMS_P1;PMS_P2;Temp;Humidity;BMP_temperature;BMP_pressure;BME280_temperature;BME280_humidity;BME280_pressure;Samples;Min_cycle;Max_cycle;Signal;HPM_P1;HPM_P2
2022/06/16 00:00:19;;;;;;;3.58;2.20;;;16.60;73.20;;;;;;4994966;28;20038;-72
2022/06/16 00:02:50;;;;;;;4.10;2.30;;;16.60;73.80;;;;;;4994691;28;20839;-73
2022/06/16 00:05:21;;;;;;;3.72;2.53;;;16.50;74.20;;;;;;4996666;28;20038;-72
2022/06/16 00:07:47;;;;;;;4.50;2.40;;;16.50;74.40;;;;;;4994566;28;20037;-73
2022/06/16 00:10:14;;;;;;;3.95;2.65;;;16.40;74.70;;;;;;4997348;28;20490;-73
2022/06/16 00:12:41;;;;;;;4.38;2.75;;;16.30;74.90;;;;;;4997726;28;20116;-73
2022/06/16 00:15:10;;;;;;;5.18;2.55;;;16.30;75.00;;;;;;4999701;28;20131;-73
2022/06/16 00:17:36;;;;;;;3.65;2.47;;;16.20;75.30;;;;;;4992325;28;20123;-72
2022/06/16 00:20:04;;;;;;;4.50;2.72;;;16.10;75.50;;;;;;4994619;28;20149;-73
2022/06/16 00:22:35;;;;;;;6.20;2.85;;;16.10;75.60;;;;;;4993895;28;20034;-72
2022/06/16 00:25:01;;;;;;;5.63;2.60;;;16.00;75.60;;;;;;4997676;28;20030;-73
2022/06/16 00:27:27;;;;;;;6.18;2.85;;;15.90;75.60;;;;;;4991185;28;20445;-72
2022/06/16 00:29:53;;;;;;;5.70;3.35;;;15.90;75.80;;;;;;5003229;28;20031;-72
2022/06/16 00:32:20;;;;;;;5.32;2.85;;;15.80;75.80;;;;;;5000096;28;20036;-72
2022/06/16 00:34:45;;;;;;;4.55;2.90;;;15.80;76.00;;;;;;4991334;28;20036;-72
2022/06/16 00:37:11;;;;;;;5.75;3.08;;;15.70;76.20;;;;;;4995141;28;20032;-72
2022/06/16 00:39:37;;;;;;;2.90;2.10;;;15.70;77.20;;;;;;4994650;28;20416;-73
2022/06/16 00:42:21;;;;;;;4.05;2.47;;;15.60;76.60;;;;;;4995948;28;20076;-72
2022/06/16 00:44:51;;;;;;;4.32;2.72;;;15.60;76.80;;;;;;4991738;28;20034;-72
2022/06/16 00:47:22;;;;;;;6.75;3.25;;;15.50;77.20;;;;;;4994735;28;20044;-72
2022/06/16 00:49:51;;;;;;;4.65;2.60;;;15.50;77.30;;;;;;4994544;28;20066;-72
2022/06/16 00:52:24;;;;;;;3.83;2.33;;;15.50;77.60;;;;;;4994536;28;20030;-72
2022/06/16 00:55:02;;;;;;;4.70;2.97;;;15.40;77.80;;;;;;4997700;28;20030;-72
2022/06/16 00:57:46;;;;;;;8.05;2.92;;;15.40;78.10;;;;;;4989869;28;20038;-73
2022/06/16 01:00:19;;;;;;;4.38;2.58;;;15.40;78.20;;;;;;4992435;28;20030;-72
2022/06/16 01:02:45;;;;;;;4.40;2.30;;;15.40;78.40;;;;;;4992256;28;20117;-72
2022/06/16 01:05:11;;;;;;;4.43;2.47;;;15.30;78.60;;;;;;4996112;28;20479;-73
2022/06/16 01:07:44;;;;;;;7.22;2.67;;;15.30;78.70;;;;;;4997837;28;20045;-72
2022/06/16 01:10:11;;;;;;;2.65;2.15;;;15.30;78.90;;;;;;4993665;28;20057;-72
2022/06/16 01:16:10;;;;;;;2.78;2.30;;;15.30;79.20;;;;;;4996103;28;20029;-72
2022/06/16 01:18:54;;;;;;;3.55;2.25;;;15.30;79.10;;;;;;4993624;28;20074;-72
2022/06/16 01:21:19;;;;;;;3.88;2.40;;;15.30;79.00;;;;;;4993170;28;20092;-73
2022/06/16 01:24:22;;;;;;;5.07;2.30;;;15.30;79.00;;;;;;4991535;28;20034;-73
2022/06/16 01:26:57;;;;;;;3.85;2.58;;;15.20;79.00;;;;;;4994557;28;20030;-73
2022/06/16 01:29:33;;;;;;;4.28;2.50;;;15.20;79.20;;;;;;5002427;28;20026;-72
2022/06/16 01:32:23;;;;;;;4.15;2.45;;;15.20;79.40;;;;;;4994916;28;20037;-73
2022/06/16 01:35:04;;;;;;;5.47;2.30;;;15.20;79.50;;;;;;4992347;28;20148;-73
2022/06/16 01:37:44;;;;;;;3.60;2.15;;;15.20;79.70;;;;;;4994198;28;20132;-73
2022/06/16 01:40:27;;;;;;;4.15;2.10;;;15.20;79.80;;;;;;4991322;28;20045;-73
2022/06/16 01:43:15;;;;;;;3.50;2.72;;;15.20;80.00;;;;;;4993129;28;20026;-72
2022/06/16 01:45:52;;;;;;;;;;;15.20;80.10;;;;;;4992933;28;20061;-72
2022/06/16 01:48:20;;;;;;;4.93;2.50;;;15.20;80.30;;;;;;4995444;28;19913;-72
2022/06/16 01:51:17;;;;;;;4.28;2.70;;;15.10;80.50;;;;;;4991076;28;20026;-73
2022/06/16 01:53:52;;;;;;;4.47;2.70;;;15.10;80.80;;;;;;4991427;28;20026;-72
2022/06/16 01:56:24;;;;;;;7.22;2.30;;;15.00;80.90;;;;;;4995895;28;20111;-72
2022/06/16 01:59:01;;;;;;;2.22;2.00;;;15.00;81.30;;;;;;4988570;28;20041;-73
2022/06/16 02:01:31;;;;;;;7.03;2.88;;;15.00;81.50;;;;;;4997900;28;20707;-72
2022/06/16 02:04:04;;;;;;;3.72;2.15;;;15.00;81.70;;;;;;4998046;28;20045;-72
2022/06/16 02:06:41;;;;;;;4.70;2.00;;;15.00;81.90;;;;;;4990197;28;20117;-73
2022/06/16 02:09:11;;;;;;;6.40;2.55;;;15.10;81.90;;;;;;4997892;28;20026;-73
2022/06/16 02:11:38;;;;;;;2.92;2.10;;;15.20;81.70;;;;;;5006153;28;20034;-73
2022/06/16 02:14:34;;;;;;;3.42;2.42;;;15.30;81.50;;;;;;4989546;28;20030;-72
2022/06/16 02:17:12;;;;;;;7.07;2.50;;;15.30;81.40;;;;;;4999675;28;20038;-72
2022/06/16 02:19:39;;;;;;;5.10;2.00;;;15.40;81.50;;;;;;4995896;28;20520;-72
2022/06/16 02:22:05;;;;;;;4.05;2.40;;;15.40;81.40;;;;;;4993015;28;20489;-72
2022/06/16 02:24:31;;;;;;;3.95;2.13;;;15.50;81.50;;;;;;4995203;28;20035;-73
2022/06/16 02:26:59;;;;;;;3.40;2.65;;;15.40;81.50;;;;;;4991551;28;20037;-72
2022/06/16 02:29:37;;;;;;;4.03;2.08;;;15.40;81.80;;;;;;4998224;28;20036;-72
2022/06/16 02:32:21;;;;;;;2.55;2.15;;;15.40;82.10;;;;;;4996495;28;20026;-72
2022/06/16 02:35:12;;;;;;;4.60;2.40;;;15.40;82.30;;;;;;4996623;28;20040;-72
2022/06/16 02:37:57;;;;;;;5.18;2.42;;;15.40;82.50;;;;;;4991388;28;20494;-72
2022/06/16 02:40:46;;;;;;;3.80;2.50;;;15.30;83.30;;;;;;4996455;28;20021;-72
2022/06/16 02:43:47;;;;;;;5.70;2.58;;;15.30;82.70;;;;;;4995616;28;20033;-73
2022/06/16 02:46:25;;;;;;;5.10;2.30;;;15.20;83.00;;;;;;4991237;28;20062;-73
2022/06/16 02:49:39;;;;;;;3.72;2.20;;;15.10;83.80;;;;;;4990249;28;20022;-72
2022/06/16 02:52:23;;;;;;;3.78;2.63;;;15.10;83.60;;;;;;5010325;28;20153;-72
2022/06/16 02:55:00;;;;;;;4.75;2.75;;;15.00;84.00;;;;;;4995481;28;20644;-72
2022/06/16 02:57:44;;;;;;;3.13;2.50;;;14.90;84.40;;;;;;4999163;28;20134;-72
2022/06/16 03:00:28;;;;;;;2.95;2.47;;;14.90;84.70;;;;;;4997117;28;20062;-72
2022/06/16 03:02:54;;;;;;;5.40;2.50;;;14.90;84.70;;;;;;4977559;28;20047;-72
2022/06/16 03:05:20;;;;;;;4.63;2.10;;;15.00;84.90;;;;;;4990480;28;20533;-72
2022/06/16 03:07:48;;;;;;;4.68;2.70;;;15.00;84.80;;;;;;4991275;28;20052;-72
2022/06/16 03:13:05;;;;;;;4.78;2.45;;;15.00;84.90;;;;;;4990680;28;20030;-72
2022/06/16 03:15:31;;;;;;;3.53;2.70;;;15.00;85.00;;;;;;4994301;28;20034;-72
2022/06/16 03:17:57;;;;;;;2.90;2.53;;;15.00;85.00;;;;;;4990759;28;20030;-72
2022/06/16 03:20:23;;;;;;;4.40;2.63;;;15.10;85.00;;;;;;5001101;28;20045;-73
2022/06/16 03:22:49;;;;;;;4.00;2.75;;;15.10;84.90;;;;;;5001521;28;20565;-73
2022/06/16 03:25:16;;;;;;;4.28;2.50;;;15.20;84.90;;;;;;4992925;28;20045;-72
2022/06/16 03:27:42;;;;;;;4.65;2.85;;;15.30;84.90;;;;;;4993153;28;20022;-72
2022/06/16 03:30:10;;;;;;;3.63;2.60;;;15.30;84.90;;;;;;4995527;28;20033;-72
2022/06/16 03:32:36;;;;;;;3.90;2.63;;;15.40;84.80;;;;;;4995806;28;20347;-72
2022/06/16 03:35:05;;;;;;;5.60;3.10;;;15.40;84.40;;;;;;5002536;28;20378;-72
2022/06/16 03:37:32;;;;;;;4.07;2.63;;;15.40;84.40;;;;;;5002346;28;20038;-72
2022/06/16 03:40:02;;;;;;;5.82;2.55;;;15.40;84.50;;;;;;5000126;28;20108;-72
2022/06/16 03:42:30;;;;;;;3.05;2.45;;;15.50;84.40;;;;;;4993605;28;20112;-73
2022/06/16 03:45:00;;;;;;;4.20;2.60;;;15.60;84.20;;;;;;4995519;28;20038;-73
2022/06/16 03:47:27;;;;;;;5.10;2.70;;;15.60;84.00;;;;;;4995432;28;20407;-72
2022/06/16 03:49:53;;;;;;;6.10;3.20;;;15.70;83.90;;;;;;4997595;28;20065;-72
2022/06/16 03:52:20;;;;;;;6.20;3.03;;;15.90;83.50;;;;;;4993736;28;20565;-73
2022/06/16 03:54:51;;;;;;;5.20;2.60;;;16.00;82.90;;;;;;5001324;28;20030;-73
2022/06/16 03:57:18;;;;;;;3.33;2.60;;;16.10;82.60;;;;;;4996235;28;20035;-72
2022/06/16 03:59:46;;;;;;;2.90;2.65;;;16.10;82.50;;;;;;4998139;28;20030;-72
2022/06/16 04:02:37;;;;;;;5.85;3.05;;;15.90;82.50;;;;;;4999336;28;20042;-73
2022/06/16 04:05:07;;;;;;;5.53;3.05;;;15.90;82.80;;;;;;4998862;28;20044;-72
2022/06/16 04:07:35;;;;;;;5.57;2.70;;;15.80;83.30;;;;;;4994002;28;20045;-72
2022/06/16 04:10:14;;;;;;;7.13;3.20;;;15.80;83.60;;;;;;4991169;28;20057;-73
2022/06/16 04:12:42;;;;;;;3.92;2.47;;;15.90;83.60;;;;;;4993098;28;20088;-73
2022/06/16 04:15:12;;;;;;;6.78;3.28;;;16.00;83.40;;;;;;5009712;28;20066;-73
2022/06/16 04:17:38;;;;;;;5.68;2.90;;;16.10;83.10;;;;;;4995276;28;20033;-72
2022/06/16 04:20:21;;;;;;;8.85;3.35;;;16.30;82.50;;;;;;4997243;28;20128;-73
2022/06/16 04:23:00;;;;;;;4.88;2.92;;;16.60;81.20;;;;;;4990775;28;20035;-73
2022/06/16 04:25:32;;;;;;;5.70;3.10;;;16.80;80.40;;;;;;4994558;28;20034;-73
2022/06/16 04:28:16;;;;;;;6.88;3.28;;;17.00;79.80;;;;;;4993250;28;20914;-73
2022/06/16 04:30:47;;;;;;;4.85;2.95;;;16.90;79.40;;;;;;5002569;28;20370;-73
2022/06/16 04:33:13;;;;;;;4.80;3.17;;;16.90;79.60;;;;;;4992733;28;20033;-73
2022/06/16 04:35:41;;;;;;;6.45;3.88;;;17.00;79.50;;;;;;5003674;28;20092;-72
2022/06/16 04:38:09;;;;;;;6.40;3.30;;;16.90;79.20;;;;;;4997982;28;20061;-72
2022/06/16 04:40:37;;;;;;;6.70;3.28;;;17.00;79.10;;;;;;4995901;28;20030;-73
2022/06/16 04:43:20;;;;;;;7.57;3.20;;;17.10;78.60;;;;;;4991422;28;20040;-72
2022/06/16 04:45:53;;;;;;;7.93;3.15;;;17.10;77.70;;;;;;5002741;28;20068;-73
2022/06/16 04:48:23;;;;;;;6.22;3.00;;;17.00;78.40;;;;;;4993658;28;20029;-73
2022/06/16 04:50:49;;;;;;;7.90;3.33;;;17.00;78.50;;;;;;5001942;28;20029;-73
2022/06/16 04:53:18;;;;;;;4.43;2.80;;;17.10;78.30;;;;;;4992962;28;20734;-73
2022/06/16 04:56:01;;;;;;;5.82;3.20;;;17.30;77.70;;;;;;4998768;28;20026;-73
2022/06/16 04:58:59;;;;;;;5.22;3.00;;;17.50;76.70;;;;;;4976189;28;20553;-73
2022/06/16 05:01:34;;;;;;;7.15;3.33;;;17.70;75.80;;;;;;4995307;28;20030;-72
2022/06/16 05:04:19;;;;;;;4.15;3.28;;;17.80;75.30;;;;;;4996817;28;20048;-72
2022/06/16 05:07:03;;;;;;;7.93;3.03;;;17.80;75.10;;;;;;4999308;28;20036;-72
2022/06/16 05:09:39;;;;;;;9.40;3.28;;;17.70;75.20;;;;;;4998764;28;20600;-72
2022/06/16 05:12:24;;;;;;;6.00;2.80;;;17.60;75.50;;;;;;4994565;28;20469;-72
2022/06/16 05:15:16;;;;;;;7.22;3.13;;;17.70;75.60;;;;;;4993509;28;20041;-73
2022/06/16 05:18:14;;;;;;;8.57;3.05;;;17.70;75.50;;;;;;4976445;28;20733;-72
2022/06/16 05:21:10;;;;;;;4.53;2.72;;;17.90;74.70;;;;;;4984575;28;20128;-73
2022/06/16 05:23:56;;;;;;;5.15;3.22;;;18.30;73.80;;;;;;4999598;28;20120;-72
2022/06/16 05:26:44;;;;;;;4.38;2.67;;;18.90;71.70;;;;;;4984461;28;20039;-72
2022/06/16 05:29:49;;;;;;;5.60;2.83;;;19.50;69.40;;;;;;4983239;28;20045;-72
2022/06/16 05:32:21;;;;;;;3.97;2.75;;;19.60;68.40;;;;;;4991610;28;20032;-72
2022/06/16 05:34:59;;;;;;;3.10;2.25;;;19.60;68.50;;;;;;4992042;28;20163;-72
2022/06/16 05:37:34;;;;;;;3.70;2.42;;;19.30;69.10;;;;;;4985814;28;20043;-72
2022/06/16 05:40:19;;;;;;;4.30;2.63;;;19.40;69.10;;;;;;4995618;28;20529;-72
2022/06/16 05:43:16;;;;;;;4.63;2.72;;;19.30;69.30;;;;;;4996229;28;20268;-72
2022/06/16 05:46:16;;;;;;;9.75;3.00;;;19.50;69.20;;;;;;4984978;28;20057;-72
2022/06/16 05:48:52;;;;;;;4.65;2.20;;;19.70;69.00;;;;;;4993034;28;20397;-73
2022/06/16 05:51:18;;;;;;;7.18;2.65;;;20.00;68.30;;;;;;4997735;28;20030;-73
2022/06/16 05:54:04;;;;;;;12.07;2.80;;;20.30;67.30;;;;;;5000371;28;20037;-73
2022/06/16 05:56:33;;;;;;;26.77;4.22;;;20.40;66.20;;;;;;4995812;28;20408;-73
2022/06/16 05:58:59;;;;;;;7.97;2.92;;;20.40;66.20;;;;;;4998582;28;20030;-73
2022/06/16 06:01:27;;;;;;;7.30;3.00;;;20.60;66.50;;;;;;4998268;28;20026;-73
2022/06/16 06:04:02;;;;;;;6.20;2.47;;;20.80;65.70;;;;;;4991682;28;20038;-72
2022/06/16 06:06:28;;;;;;;8.05;2.45;;;20.90;65.30;;;;;;4995614;28;20037;-73
2022/06/16 06:17:17;;;;;;;;;;;21.20;63.80;;;;;;4993041;28;20040;-73
2022/06/16 06:19:43;;;;;;;5.03;2.20;;;21.50;62.00;;;;;;5000490;28;19956;-72
2022/06/16 06:22:14;;;;;;;5.72;2.65;;;21.50;62.30;;;;;;4992780;28;20841;-72
2022/06/16 06:24:46;;;;;;;8.48;2.50;;;21.50;62.40;;;;;;4990562;28;20038;-73
2022/06/16 06:27:35;;;;;;;2.75;1.85;;;21.40;62.60;;;;;;4999640;28;20033;-73
2022/06/16 06:30:05;;;;;;;7.40;2.03;;;21.10;63.00;;;;;;4998898;28;20082;-73
2022/06/16 06:32:31;;;;;;;2.50;2.00;;;20.90;63.60;;;;;;4993871;28;20041;-73
2022/06/16 06:34:58;;;;;;;4.38;2.28;;;20.80;64.30;;;;;;4990637;28;20062;-72
2022/06/16 06:37:26;;;;;;;3.35;2.20;;;20.80;64.90;;;;;;5005923;28;20031;-72
2022/06/16 06:39:53;;;;;;;3.10;2.03;;;21.00;64.10;;;;;;4995807;28;20502;-72
2022/06/16 06:42:19;;;;;;;2.58;2.00;;;21.20;64.00;;;;;;4999934;28;20038;-73
2022/06/16 06:44:45;;;;;;;4.82;1.90;;;21.40;63.60;;;;;;4995779;28;20034;-72
2022/06/16 06:47:20;;;;;;;2.70;2.10;;;21.60;62.70;;;;;;4995426;28;20093;-73
2022/06/16 06:49:46;;;;;;;3.88;1.58;;;21.90;60.60;;;;;;4997501;28;20026;-73
2022/06/16 06:52:12;;;;;;;5.72;2.00;;;22.20;60.40;;;;;;4994852;28;20038;-73
2022/06/16 06:54:39;;;;;;;6.55;2.17;;;22.30;60.00;;;;;;4994829;28;20042;-73
2022/06/16 06:57:05;;;;;;;3.70;2.00;;;22.40;59.90;;;;;;4995337;28;20044;-73
2022/06/16 06:59:31;;;;;;;9.27;2.20;;;22.30;59.70;;;;;;5000181;28;20858;-73
2022/06/16 07:01:57;;;;;;;4.55;2.00;;;22.20;60.40;;;;;;4995787;28;20030;-73
2022/06/16 07:04:23;;;;;;;3.45;2.00;;;22.30;60.70;;;;;;4995694;28;20068;-73
2022/06/16 07:06:49;;;;;;;3.08;1.90;;;22.50;60.20;;;;;;5001634;28;20041;-73
2022/06/16 07:09:19;;;;;;;3.92;2.20;;;22.80;59.40;;;;;;4997647;28;20125;-73
2022/06/16 07:11:45;;;;;;;2.55;1.90;;;23.00;58.20;;;;;;5001227;28;20026;-73
2022/06/16 07:14:12;;;;;;;5.05;2.17;;;22.80;58.40;;;;;;4997140;28;20030;-73
2022/06/16 07:16:37;;;;;;;7.70;2.08;;;22.60;58.80;;;;;;5001804;28;20033;-73
2022/06/16 07:19:04;;;;;;;4.38;2.10;;;22.40;59.30;;;;;;4999680;28;20787;-73
2022/06/16 07:21:30;;;;;;;3.15;1.70;;;22.40;59.10;;;;;;4998963;28;20042;-72
2022/06/16 07:23:56;;;;;;;3.22;2.08;;;22.70;58.00;;;;;;4994156;28;20332;-73
2022/06/16 07:26:22;;;;;;;4.40;2.10;;;23.00;57.90;;;;;;4997351;28;20022;-72
2022/06/16 07:28:49;;;;;;;3.92;1.90;;;23.30;57.80;;;;;;4998244;28;20030;-73
2022/06/16 07:31:15;;;;;;;3.13;2.00;;;23.50;56.20;;;;;;4991250;28;20030;-72
2022/06/16 07:33:41;;;;;;;2.90;1.80;;;23.80;55.90;;;;;;5002787;28;20068;-73
2022/06/16 07:36:10;;;;;;;5.38;2.20;;;23.90;55.90;;;;;;4999303;28;20038;-73
2022/06/16 07:38:37;;;;;;;7.00;1.88;;;24.10;55.60;;;;;;4995233;28;20030;-73
2022/06/16 07:41:48;;;;;;;4.00;1.90;;;24.20;55.20;;;;;;4995307;28;20061;-73
2022/06/16 07:43:49;;;;;;;;;;;24.30;55.00;;;;;;4993242;28;20919;-73
2022/06/16 07:46:14;;;;;;;5.85;2.17;;;24.10;53.40;;;;;;4997340;28;19917;-73
2022/06/16 07:48:40;;;;;;;5.97;2.17;;;24.00;54.60;;;;;;4994623;28;20033;-73
2022/06/16 07:51:06;;;;;;;4.15;2.10;;;24.00;54.40;;;;;;5001746;28;20839;-73
2022/06/16 07:53:32;;;;;;;3.13;2.03;;;23.90;54.10;;;;;;4999709;28;20045;-73
2022/06/16 07:55:58;;;;;;;5.30;2.17;;;23.80;54.70;;;;;;4995837;28;20081;-75
2022/06/16 07:58:29;;;;;;;4.40;2.13;;;24.10;55.30;;;;;;4998685;28;20421;-71
2022/06/16 08:00:55;;;;;;;5.53;1.80;;;24.30;54.30;;;;;;4995052;28;20150;-71
2022/06/16 08:03:26;;;;;;;8.45;2.25;;;24.30;54.30;;;;;;4998179;28;20034;-72
2022/06/16 08:05:53;;;;;;;4.78;1.95;;;24.10;53.70;;;;;;4998395;28;20501;-73
2022/06/16 08:08:22;;;;;;;5.55;2.13;;;24.10;54.50;;;;;;4994399;28;20052;-73
2022/06/16 08:10:48;;;;;;;5.72;2.45;;;24.30;54.70;;;;;;5000011;28;20034;-73
2022/06/16 08:13:14;;;;;;;6.63;2.17;;;24.40;54.10;;;;;;4999523;28;20026;-72
2022/06/16 08:15:42;;;;;;;3.70;1.73;;;24.40;53.80;;;;;;4998150;28;20482;-72
2022/06/16 08:18:10;;;;;;;5.05;2.35;;;24.30;53.70;;;;;;5000757;28;20038;-73
2022/06/16 08:20:36;;;;;;;4.00;1.77;;;24.30;53.30;;;;;;4994989;28;20042;-74
2022/06/16 08:23:02;;;;;;;3.30;2.08;;;24.30;53.50;;;;;;4995507;28;20866;-73
2022/06/16 08:25:29;;;;;;;5.13;1.80;;;24.30;53.40;;;;;;4999377;28;20085;-72
2022/06/16 08:27:55;;;;;;;3.60;1.92;;;24.40;52.20;;;;;;4994522;28;20022;-72
2022/06/16 08:30:24;;;;;;;8.38;1.98;;;24.80;52.10;;;;;;4996522;28;20039;-73
2022/06/16 08:32:50;;;;;;;4.88;2.33;;;25.20;51.30;;;;;;4999100;28;20179;-73
2022/06/16 08:35:16;;;;;;;3.13;1.85;;;25.50;50.80;;;;;;4998430;28;20042;-73
2022/06/16 08:37:42;;;;;;;5.22;2.50;;;25.60;50.00;;;;;;4992431;28;20030;-73
2022/06/16 08:40:10;;;;;;;3.28;1.60;;;25.40;50.70;;;;;;4998903;28;20500;-72
2022/06/16 08:42:47;;;;;;;4.65;2.00;;;25.20;50.10;;;;;;4996873;28;20036;-70
2022/06/16 08:45:22;;;;;;;4.35;1.70;;;25.10;51.20;;;;;;4993341;28;20045;-72
2022/06/16 08:48:04;;;;;;;2.30;1.53;;;25.30;51.20;;;;;;4998466;28;20412;-72
2022/06/16 08:50:37;;;;;;;4.63;1.30;;;25.60;49.70;;;;;;4997736;28;20462;-72
2022/06/16 08:53:46;;;;;;;11.15;1.73;;;26.20;48.00;;;;;;4992163;28;20037;-72
2022/06/16 08:56:22;;;;;;;5.65;1.70;;;27.00;48.00;;;;;;4995625;28;20042;-71
2022/06/16 08:59:29;;;;;;;2.22;1.13;;;27.40;45.70;;;;;;4993765;28;20096;-71
2022/06/16 09:01:59;;;;;;;3.38;1.60;;;27.50;45.70;;;;;;4998601;28;20494;-71
2022/06/16 09:04:37;;;;;;;3.92;1.35;;;27.50;45.60;;;;;;4996084;28;20069;-71
2022/06/16 09:07:30;;;;;;;3.22;1.90;;;27.70;45.90;;;;;;4994291;28;20038;-71
2022/06/16 09:10:14;;;;;;;5.95;2.00;;;27.70;45.70;;;;;;4998260;28;20030;-72
2022/06/16 09:13:07;;;;;;;4.03;1.52;;;27.70;44.50;;;;;;4997580;28;20042;-72
2022/06/16 09:15:55;;;;;;;14.10;9.30;;;27.30;45.10;;;;;;4995641;28;20071;-65
2022/06/16 09:18:48;;;;;;;15.32;5.45;;;26.90;45.60;;;;;;4996637;28;20065;-66
2022/06/16 09:22:00;;;;;;;8.90;5.70;;;26.50;46.50;;;;;;4993637;28;20492;-66
2022/06/16 09:25:04;;;;;;;11.23;5.82;;;26.10;47.30;;;;;;4990088;28;20134;-65
2022/06/16 09:27:52;;;;;;;11.40;7.25;;;26.00;47.80;;;;;;4993530;28;20046;-65
2022/06/16 09:32:26;;;;;;;8.05;5.35;;;26.40;46.90;;;;;;5055608;27;20381;-65
2022/06/16 09:35:07;;;;;;;5.32;3.40;;;26.90;46.30;;;;;;5050605;28;20053;-65
2022/06/16 09:37:43;;;;;;;9.75;4.80;;;27.30;45.10;;;;;;4968365;28;20538;-65
2022/06/16 09:40:20;;;;;;;4.85;2.97;;;27.30;45.40;;;;;;4994440;28;20030;-66
2022/06/16 09:43:10;;;;;;;3.33;1.58;;;27.40;45.90;;;;;;4995028;28;20041;-65
2022/06/16 09:45:45;;;;;;;7.43;2.47;;;27.30;44.80;;;;;;4994403;28;20057;-64
2022/06/16 09:48:22;;;;;;;4.57;2.23;;;27.20;45.40;;;;;;4992129;28;20605;-65
2022/06/16 09:51:11;;;;;;;6.07;2.20;;;27.00;45.80;;;;;;4996024;28;20297;-63
2022/06/16 09:53:55;;;;;;;3.28;1.75;;;26.70;45.50;;;;;;4993732;28;20398;-67
2022/06/16 09:56:41;;;;;;;6.47;1.98;;;26.50;46.20;;;;;;4994943;28;20040;-66
2022/06/16 09:59:13;;;;;;;5.07;2.38;;;26.40;46.90;;;;;;4986986;28;20833;-66
2022/06/16 10:01:55;;;;;;;4.22;2.35;;;26.30;47.20;;;;;;4989882;28;20054;-64
2022/06/16 10:04:21;;;;;;;7.72;4.80;;;26.50;46.80;;;;;;4990800;28;20121;-64
2022/06/16 10:06:48;;;;;;;10.10;4.43;;;26.60;46.60;;;;;;4994470;28;20699;-64
2022/06/16 10:09:18;;;;;;;10.55;4.60;;;26.80;46.20;;;;;;4989789;28;20034;-64
2022/06/16 10:12:04;;;;;;;6.78;3.00;;;27.10;45.60;;;;;;4993031;28;20037;-64
2022/06/16 10:15:04;;;;;;;5.55;2.72;;;27.30;43.90;;;;;;4993393;28;20141;-64
2022/06/16 10:17:33;;;;;;;8.40;4.05;;;27.50;44.60;;;;;;4989958;28;20125;-66
2022/06/16 10:19:59;;;;;;;12.85;7.10;;;27.60;44.70;;;;;;4985555;28;20038;-66
2022/06/16 10:22:27;;;;;;;5.45;2.83;;;27.70;44.40;;;;;;4993479;28;20041;-63
2022/06/16 10:25:05;;;;;;;8.57;3.40;;;28.00;43.70;;;;;;4992435;28;20049;-63
2022/06/16 10:27:39;;;;;;;5.80;2.70;;;28.20;43.00;;;;;;4988510;28;20035;-67
2022/06/16 10:30:07;;;;;;;3.13;1.80;;;28.30;42.40;;;;;;4992085;28;20085;-66
2022/06/16 10:32:56;;;;;;;6.22;1.92;;;28.40;42.30;;;;;;4994995;28;20486;-66
2022/06/16 10:35:22;;;;;;;6.32;2.20;;;28.50;42.90;;;;;;4992662;28;20026;-66
2022/06/16 10:37:52;;;;;;;3.45;1.60;;;28.60;41.50;;;;;;4994292;28;20505;-66
2022/06/16 10:40:30;;;;;;;2.13;1.60;;;28.60;41.90;;;;;;4993500;28;20029;-67
2022/06/16 10:43:05;;;;;;;2.65;1.30;;;28.50;41.60;;;;;;4980822;28;20451;-66
2022/06/16 10:45:34;;;;;;;4.78;1.52;;;28.60;41.40;;;;;;4981192;28;20031;-66
2022/06/16 10:48:19;;;;;;;1.85;1.23;;;28.70;41.80;;;;;;4982094;28;20030;-64
2022/06/16 10:50:56;;;;;;;2.83;1.45;;;28.80;41.00;;;;;;4979893;28;20065;-66
2022/06/16 10:53:26;;;;;;;5.07;2.17;;;30.00;39.30;;;;;;4977808;28;20494;-66
2022/06/16 10:56:01;;;;;;;7.88;3.40;;;30.50;38.50;;;;;;4979302;28;20038;-66
2022/06/16 10:58:41;;;;;;;8.43;4.65;;;30.10;39.40;;;;;;4982586;28;20525;-66
2022/06/16 11:01:24;;;;;;;4.53;1.90;;;29.40;39.80;;;;;;4976121;28;20075;-67
2022/06/16 11:04:07;;;;;;;12.82;7.57;;;28.80;40.20;;;;;;4976413;28;20034;-66
2022/06/16 11:06:37;;;;;;;13.48;7.45;;;28.30;42.30;;;;;;4978397;28;20462;-66
2022/06/16 11:09:06;;;;;;;3.90;2.45;;;27.70;43.40;;;;;;4979759;28;20065;-66
2022/06/16 11:11:52;;;;;;;7.10;3.15;;;27.40;42.90;;;;;;4978274;28;20034;-66
2022/06/16 11:14:44;;;;;;;6.25;3.53;;;27.10;44.30;;;;;;4975232;28;20034;-65
2022/06/16 11:17:36;;;;;;;2.90;1.80;;;26.80;43.90;;;;;;4977468;28;20113;-65
2022/06/16 11:20:16;;;;;;;3.70;2.22;;;26.60;44.40;;;;;;4974666;28;20083;-65
2022/06/16 11:22:45;;;;;;;4.05;2.38;;;26.50;44.30;;;;;;4977141;28;20041;-65
2022/06/16 11:25:39;;;;;;;3.72;1.67;;;26.20;45.10;;;;;;4979360;28;20039;-65
2022/06/16 11:28:10;;;;;;;3.90;1.60;;;26.10;45.00;;;;;;4980040;28;20041;-65
2022/06/16 11:30:41;;;;;;;6.93;1.80;;;26.30;45.30;;;;;;4981495;28;20145;-65
2022/06/16 11:36:28;;;;;;;1.98;1.40;;;26.50;44.30;;;;;;4977838;28;20121;-66
2022/06/16 11:39:23;;;;;;;2.50;1.33;;;26.30;44.20;;;;;;4977218;28;20437;-65
2022/06/16 11:41:51;;;;;;;3.28;1.55;;;26.20;44.50;;;;;;4969060;28;20042;-65
2022/06/16 11:44:29;;;;;;;4.15;1.45;;;26.10;44.40;;;;;;4977916;28;20081;-64
2022/06/16 11:47:19;;;;;;;2.92;1.20;;;26.20;44.20;;;;;;4981334;28;20026;-65
2022/06/16 11:50:02;;;;;;;4.30;1.17;;;26.20;43.80;;;;;;4976126;28;20033;-65
2022/06/16 11:52:32;;;;;;;3.78;1.60;;;26.30;44.40;;;;;;4979957;28;20041;-65
2022/06/16 11:55:28;;;;;;;3.33;1.98;;;26.30;43.30;;;;;;4972296;28;20074;-65
2022/06/16 11:58:18;;;;;;;2.38;1.30;;;26.10;43.60;;;;;;4978828;28;20023;-66
2022/06/16 12:01:01;;;;;;;4.40;1.13;;;26.10;44.00;;;;;;4980334;28;20035;-65
2022/06/16 12:03:42;;;;;;;2.80;1.30;;;26.00;44.80;;;;;;4978776;28;20049;-65
2022/06/16 12:06:41;;;;;;;4.53;1.17;;;26.10;44.10;;;;;;4975173;28;20042;-65
2022/06/16 12:09:35;;;;;;;6.28;1.58;;;26.10;43.60;;;;;;4969742;28;20023;-65
2022/06/16 12:12:16;;;;;;;3.75;1.30;;;26.20;44.70;;;;;;4978660;28;20041;-64
2022/06/16 12:14:54;;;;;;;2.45;1.55;;;26.30;43.70;;;;;;4977839;28;20039;-64
2022/06/16 12:17:36;;;;;;;5.18;1.45;;;26.50;42.70;;;;;;4981039;28;20037;-65
2022/06/16 12:20:22;;;;;;;3.97;1.33;;;26.40;42.60;;;;;;4979056;28;20640;-65
2022/06/16 12:23:07;;;;;;;5.18;2.40;;;26.30;43.10;;;;;;4974814;28;20035;-65
2022/06/16 12:25:45;;;;;;;7.70;4.63;;;26.30;43.80;;;;;;4977679;28;20030;-65
2022/06/16 12:28:33;;;;;;;5.00;3.08;;;26.20;43.80;;;;;;4977435;28;20847;-64
2022/06/16 12:31:44;;;;;;;6.43;2.53;;;26.20;44.40;;;;;;4981108;28;20030;-66
2022/06/16 12:34:17;;;;;;;6.15;4.15;;;26.30;43.60;;;;;;4975024;28;20034;-66
2022/06/16 12:36:50;;;;;;;4.53;1.77;;;26.40;43.80;;;;;;4976508;28;20022;-65
2022/06/16 12:39:23;;;;;;;8.02;1.80;;;26.40;43.60;;;;;;4974771;28;20491;-65
2022/06/16 12:41:54;;;;;;;3.10;1.40;;;26.40;43.40;;;;;;4979191;28;20669;-65
2022/06/16 12:44:30;;;;;;;4.22;1.75;;;26.40;43.10;;;;;;4975208;28;20038;-64
2022/06/16 12:47:26;;;;;;;2.13;1.25;;;26.40;43.70;;;;;;4979880;28;20026;-66
2022/06/16 12:50:08;;;;;;;3.75;1.30;;;26.40;42.70;;;;;;4976180;28;20041;-66
2022/06/16 12:52:58;;;;;;;2.80;1.40;;;26.50;43.40;;;;;;4978718;28;20061;-66
2022/06/16 12:55:32;;;;;;;3.40;1.38;;;26.50;42.60;;;;;;4972602;28;20037;-66
2022/06/16 12:58:06;;;;;;;4.78;1.85;;;26.50;42.70;;;;;;4975072;28;20030;-66
2022/06/16 13:00:42;;;;;;;2.17;1.40;;;26.60;42.90;;;;;;4977181;28;20053;-65
2022/06/16 13:03:15;;;;;;;5.88;2.25;;;26.70;42.50;;;;;;4979178;28;20623;-65
2022/06/16 13:05:41;;;;;;;6.28;1.83;;;26.70;42.60;;;;;;4980932;28;20080;-66
2022/06/16 13:08:09;;;;;;;13.00;7.35;;;26.70;42.70;;;;;;4978505;28;20041;-66
2022/06/16 13:10:51;;;;;;;7.97;4.25;;;26.60;42.70;;;;;;4973632;28;20042;-65
2022/06/16 13:16:07;;;;;;;4.38;2.15;;;26.50;43.20;;;;;;5925474;23;20154;-89
2022/06/16 13:18:46;;;;;;;4.32;2.63;;;26.60;43.00;;;;;;4987771;28;20026;-87
2022/06/16 13:21:23;;;;;;;4.60;2.20;;;26.60;43.10;;;;;;5021896;28;20056;-88
2022/06/16 13:24:03;;;;;;;2.97;2.00;;;26.70;42.90;;;;;;5001246;28;20057;-88
2022/06/16 13:26:40;;;;;;;9.13;4.90;;;26.80;42.50;;;;;;5015680;28;20042;-87
2022/06/16 13:29:06;;;;;;;12.98;6.95;;;26.70;42.20;;;;;;4996979;28;20029;-89
2022/06/16 13:31:57;;;;;;;4.78;2.83;;;26.30;43.30;;;;;;5013431;28;20133;-88
2022/06/16 13:34:49;;;;;;;5.72;2.50;;;26.00;43.40;;;;;;5001264;28;20101;-89
2022/06/16 13:37:38;;;;;;;3.00;1.98;;;26.00;43.70;;;;;;4993218;28;20037;-88
2022/06/16 13:40:09;;;;;;;3.38;1.88;;;26.30;44.00;;;;;;4992266;28;20029;-89
2022/06/16 13:42:51;;;;;;;2.42;1.33;;;26.50;43.50;;;;;;5008402;28;20034;-89
2022/06/16 13:45:33;;;;;;;4.20;1.67;;;26.60;43.10;;;;;;4994763;28;20049;-89
2022/06/16 13:48:14;;;;;;;3.35;1.63;;;26.50;43.40;;;;;;5011991;28;20026;-88
2022/06/16 13:50:52;;;;;;;4.00;1.60;;;26.70;42.70;;;;;;5010846;28;20034;-89
2022/06/16 13:53:45;;;;;;;2.72;1.30;;;26.90;42.40;;;;;;5002878;28;20038;-88